createdAt,value
2023-02-25T00:00:17.652Z,15.15
2023-02-25T00:02:46.307Z,15.14
2023-02-25T00:05:15.771Z,15.12
2023-02-25T00:07:46.680Z,15.10
2023-02-25T00:10:15.712Z,15.07
2023-02-25T00:12:45.066Z,15.06
2023-02-25T00:15:13.877Z,15.03
2023-02-25T00:17:43.955Z,15.01
2023-02-25T00:20:14.138Z,14.99
2023-02-25T00:22:44.383Z,14.98
2023-02-25T00:25:13.212Z,14.96
2023-02-25T00:27:41.686Z,14.98
2023-02-25T00:30:12.405Z,14.97
2023-02-25T00:32:41.009Z,14.99
2023-02-25T00:35:12.789Z,15.01
2023-02-25T00:37:41.274Z,15.07
2023-02-25T00:40:15.269Z,15.09
2023-02-25T00:42:43.796Z,15.13
2023-02-25T00:45:13.771Z,15.16
2023-02-25T00:47:42.233Z,15.20
2023-02-25T00:50:14.340Z,15.21
2023-02-25T00:52:43.361Z,15.21
2023-02-25T00:55:13.436Z,15.18
2023-02-25T00:57:43.245Z,15.14
2023-02-25T01:00:16.937Z,15.10
2023-02-25T01:02:46.423Z,15.06
2023-02-25T01:05:15.737Z,15.00
2023-02-25T01:07:44.688Z,14.94
2023-02-25T01:10:14.749Z,14.86
2023-02-25T01:12:43.179Z,14.77
2023-02-25T01:15:13.368Z,14.69
2023-02-25T01:17:41.858Z,14.61
2023-02-25T01:20:13.127Z,14.51
2023-02-25T01:22:42.076Z,14.44
2023-02-25T01:25:17.515Z,14.38
2023-02-25T01:27:46.056Z,14.32
2023-02-25T01:30:14.886Z,14.23
2023-02-25T01:32:43.436Z,14.15
2023-02-25T01:35:12.236Z,14.08
2023-02-25T01:37:40.738Z,13.99
2023-02-25T01:40:17.202Z,13.92
2023-02-25T01:42:46.799Z,13.84
2023-02-25T01:45:30.494Z,13.70
2023-02-25T01:48:13.006Z,13.58
2023-02-25T01:50:50.587Z,13.38
2023-02-25T01:53:24.936Z,13.22
2023-02-25T01:55:58.616Z,13.07
2023-02-25T01:58:29.085Z,12.95
2023-02-25T02:00:57.859Z,12.85
2023-02-25T02:03:33.347Z,12.77
2023-02-25T02:06:10.533Z,12.69
2023-02-25T02:08:41.891Z,12.65
2023-02-25T02:11:12.062Z,12.58
2023-02-25T02:13:44.618Z,12.55
2023-02-25T02:16:41.417Z,12.49
2023-02-25T02:19:28.997Z,12.44
2023-02-25T02:22:09.720Z,12.40
2023-02-25T02:25:16.294Z,12.31
2023-02-25T02:28:33.712Z,12.22
2023-02-25T02:31:39.853Z,12.09
2023-02-25T02:34:21.881Z,11.99
2023-02-25T02:37:02.026Z,11.89
2023-02-25T02:39:45.744Z,11.81
2023-02-25T02:42:27.348Z,11.72
2023-02-25T02:45:05.079Z,11.65
2023-02-25T02:47:38.976Z,11.57
2023-02-25T02:50:13.361Z,11.50
2023-02-25T02:52:47.842Z,11.45
2023-02-25T02:55:23.399Z,11.40
2023-02-25T02:57:59.461Z,11.37
2023-02-25T03:00:37.741Z,11.25
2023-02-25T03:03:13.727Z,11.21
2023-02-25T03:05:46.809Z,11.15
2023-02-25T03:08:21.854Z,11.12
2023-02-25T03:10:50.327Z,11.08
2023-02-25T03:13:18.959Z,11.04
2023-02-25T03:15:49.988Z,11.00
2023-02-25T03:18:26.846Z,10.96
2023-02-25T03:20:57.422Z,10.92
2023-02-25T03:23:32.367Z,10.88
2023-02-25T03:26:15.782Z,10.83
2023-02-25T03:28:47.010Z,10.79
2023-02-25T03:31:22.502Z,10.77
2023-02-25T03:33:56.669Z,10.72
2023-02-25T03:36:31.586Z,10.65
2023-02-25T03:39:06.408Z,10.56
2023-02-25T03:41:40.372Z,10.46
2023-02-25T03:44:13.968Z,10.41
2023-02-25T03:46:47.238Z,10.35
2023-02-25T03:49:24.226Z,10.34
2023-02-25T03:51:55.199Z,10.34
2023-02-25T03:54:23.644Z,10.36
2023-02-25T03:56:53.341Z,10.36
2023-02-25T03:59:23.762Z,10.37
2023-02-25T04:01:54.520Z,10.38
2023-02-25T04:04:24.506Z,10.39
2023-02-25T04:06:52.908Z,10.40
2023-02-25T04:09:21.655Z,10.38
2023-02-25T04:11:50.089Z,10.38
2023-02-25T04:14:18.497Z,10.36
2023-02-25T04:16:46.917Z,10.35
2023-02-25T04:19:15.306Z,10.33
2023-02-25T04:21:45.293Z,10.28
2023-02-25T04:24:13.715Z,10.24
2023-02-25T04:26:42.131Z,10.19
2023-02-25T04:29:10.534Z,10.15
2023-02-25T04:31:39.148Z,10.11
2023-02-25T04:34:07.806Z,10.06
2023-02-25T04:36:37.303Z,10.02
2023-02-25T04:39:07.399Z,9.97
2023-02-25T04:41:37.200Z,9.94
2023-02-25T04:44:07.314Z,9.91
2023-02-25T04:46:39.035Z,9.88
2023-02-25T04:49:09.551Z,9.85
2023-02-25T04:51:40.389Z,9.78
2023-02-25T04:54:10.191Z,9.76
2023-02-25T04:56:39.431Z,9.73
2023-02-25T04:59:11.420Z,9.71
2023-02-25T05:01:40.270Z,9.71
2023-02-25T05:04:08.944Z,9.69
2023-02-25T05:06:37.373Z,9.65
2023-02-25T05:09:09.297Z,9.59
2023-02-25T05:11:40.068Z,9.55
2023-02-25T05:14:08.491Z,9.51
2023-02-25T05:16:37.003Z,9.48
2023-02-25T05:19:05.537Z,9.47
2023-02-25T05:21:34.936Z,9.44
2023-02-25T05:24:03.873Z,9.38
2023-02-25T05:26:32.271Z,9.34
2023-02-25T05:29:02.100Z,9.33
2023-02-25T05:31:30.664Z,9.29
2023-02-25T05:33:59.481Z,9.28
2023-02-25T05:36:28.560Z,9.26
2023-02-25T05:39:02.784Z,9.25
2023-02-25T05:41:32.258Z,9.24
2023-02-25T05:44:02.059Z,9.23
2023-02-25T05:46:30.601Z,9.24
2023-02-25T05:48:59.117Z,9.22
2023-02-25T05:51:27.661Z,9.22
2023-02-25T05:53:57.420Z,9.21
2023-02-25T05:56:30.162Z,9.19
2023-02-25T05:59:01.509Z,9.18
2023-02-25T06:01:31.721Z,9.19
2023-02-25T06:04:00.720Z,9.19
2023-02-25T06:06:32.073Z,9.17
2023-02-25T06:09:00.720Z,9.20
2023-02-25T06:11:31.691Z,9.21
2023-02-25T06:14:02.491Z,9.22
2023-02-25T06:16:32.775Z,9.24
2023-02-25T06:19:03.057Z,9.23
2023-02-25T06:21:31.859Z,9.23
2023-02-25T06:24:01.197Z,9.23
2023-02-25T06:26:30.259Z,9.23
2023-02-25T06:28:58.694Z,9.21
2023-02-25T06:31:28.826Z,9.21
2023-02-25T06:33:57.258Z,9.21
2023-02-25T06:36:25.937Z,9.22
2023-02-25T06:38:54.841Z,9.22
2023-02-25T06:41:24.568Z,9.26
2023-02-25T06:43:53.756Z,9.29
2023-02-25T06:46:25.181Z,9.32
2023-02-25T06:48:56.045Z,9.36
2023-02-25T06:51:25.871Z,9.38
2023-02-25T06:53:54.279Z,9.42
2023-02-25T06:56:23.243Z,9.46
2023-02-25T06:58:53.354Z,9.50
2023-02-25T07:01:21.984Z,9.55
2023-02-25T07:03:50.924Z,9.63
2023-02-25T07:06:21.902Z,9.70
2023-02-25T07:08:50.700Z,9.73
2023-02-25T07:11:33.685Z,9.80
2023-02-25T07:14:02.641Z,9.92
2023-02-25T07:16:31.446Z,9.99
2023-02-25T07:19:02.266Z,10.00
2023-02-25T07:21:33.732Z,10.02
2023-02-25T07:24:02.148Z,10.03
2023-02-25T07:26:30.701Z,10.07
2023-02-25T07:29:00.536Z,10.07
2023-02-25T07:31:30.087Z,10.09
2023-02-25T07:34:03.473Z,10.13
2023-02-25T07:36:37.626Z,10.14
2023-02-25T07:39:08.439Z,10.11
2023-02-25T07:41:37.770Z,10.15
2023-02-25T07:44:09.389Z,10.18
2023-02-25T07:46:38.883Z,10.21
2023-02-25T07:49:07.290Z,10.26
2023-02-25T07:51:37.127Z,10.33
2023-02-25T07:54:05.837Z,10.36
2023-02-25T07:56:34.264Z,10.38
2023-02-25T07:59:02.715Z,10.43
2023-02-25T08:01:34.782Z,10.45
2023-02-25T08:04:05.822Z,10.52
2023-02-25T08:06:39.235Z,10.57
2023-02-25T08:09:11.163Z,10.65
2023-02-25T08:11:40.628Z,10.73
2023-02-25T08:14:09.163Z,10.77
2023-02-25T08:16:37.707Z,10.77
2023-02-25T08:19:06.741Z,10.75
2023-02-25T08:21:35.258Z,10.77
2023-02-25T08:24:05.730Z,10.78
2023-02-25T08:26:34.402Z,10.83
2023-02-25T08:29:02.983Z,10.83
2023-02-25T08:31:32.100Z,10.82
2023-02-25T08:34:00.880Z,10.84
2023-02-25T08:36:31.665Z,10.83
2023-02-25T08:39:01.214Z,10.86
2023-02-25T08:41:32.149Z,10.87
2023-02-25T08:44:02.075Z,10.91
2023-02-25T08:46:33.711Z,11.01
2023-02-25T08:49:02.619Z,11.00
2023-02-25T08:51:35.126Z,11.05
2023-02-25T08:54:06.779Z,11.12
2023-02-25T08:56:37.928Z,11.16
2023-02-25T08:59:07.286Z,11.22
2023-02-25T09:01:45.809Z,11.26
2023-02-25T09:04:15.471Z,11.29
2023-02-25T09:06:44.446Z,11.36
2023-02-25T09:09:13.448Z,11.38
2023-02-25T09:11:43.950Z,11.39
2023-02-25T09:14:12.978Z,11.36
2023-02-25T09:16:41.563Z,11.37
2023-02-25T09:19:10.836Z,11.41
2023-02-25T09:21:40.442Z,11.46
2023-02-25T09:24:10.212Z,11.44
2023-02-25T09:26:38.870Z,11.44
2023-02-25T09:29:09.142Z,11.42
2023-02-25T09:31:39.767Z,11.46
2023-02-25T09:34:15.340Z,11.50
2023-02-25T09:36:44.161Z,11.57
2023-02-25T09:39:12.829Z,11.65
2023-02-25T09:41:53.967Z,11.65
2023-02-25T09:44:30.527Z,11.73
2023-02-25T09:47:05.243Z,11.76
2023-02-25T09:49:38.618Z,11.72
2023-02-25T09:52:18.588Z,11.69
2023-02-25T09:54:49.549Z,11.75
2023-02-25T09:57:22.566Z,11.75
2023-02-25T09:59:54.512Z,11.73
2023-02-25T10:02:36.995Z,11.76
2023-02-25T10:05:23.424Z,11.79
2023-02-25T10:08:08.782Z,11.79
2023-02-25T10:10:47.880Z,11.76
2023-02-25T10:13:31.740Z,11.74
2023-02-25T10:16:14.686Z,11.77
2023-02-25T10:18:57.956Z,11.76
2023-02-25T10:21:56.798Z,11.74
2023-02-25T10:24:35.873Z,11.69
2023-02-25T10:27:18.203Z,11.75
2023-02-25T10:29:53.041Z,11.81
2023-02-25T10:32:25.683Z,11.82
2023-02-25T10:34:57.957Z,11.87
2023-02-25T10:37:34.350Z,11.90
2023-02-25T10:40:11.043Z,11.95
2023-02-25T10:42:39.775Z,12.04
2023-02-25T10:45:14.873Z,12.13
2023-02-25T10:47:50.154Z,12.25
2023-02-25T10:50:27.715Z,12.34
2023-02-25T10:53:04.741Z,12.39
2023-02-25T10:55:52.501Z,12.40
2023-02-25T10:58:33.421Z,12.56
2023-02-25T11:01:08.164Z,12.89
2023-02-25T11:03:47.790Z,13.15
2023-02-25T11:06:26.145Z,13.38
2023-02-25T11:08:58.544Z,13.66
2023-02-25T11:11:31.836Z,13.99
2023-02-25T11:14:07.754Z,14.24
2023-02-25T11:16:39.060Z,14.38
2023-02-25T11:19:18.376Z,14.39
2023-02-25T11:21:47.800Z,14.42
2023-02-25T11:24:20.128Z,14.46
2023-02-25T11:26:52.297Z,14.57
2023-02-25T11:29:26.338Z,14.84
2023-02-25T11:31:59.725Z,15.16
2023-02-25T11:34:32.962Z,15.45
2023-02-25T11:37:27.905Z,15.70
2023-02-25T11:39:57.963Z,16.07
2023-02-25T11:42:30.180Z,16.52
2023-02-25T11:45:03.332Z,16.99
2023-02-25T11:47:34.078Z,17.24
2023-02-25T11:50:30.316Z,17.38
2023-02-25T11:53:10.171Z,17.53
2023-02-25T11:55:55.390Z,17.71
2023-02-25T11:58:37.795Z,17.74
2023-02-25T12:01:17.942Z,17.80
2023-02-25T12:04:07.919Z,17.77
2023-02-25T12:07:19.918Z,17.45
2023-02-25T12:10:39.746Z,17.05
2023-02-25T12:13:55.601Z,17.23
2023-02-25T12:17:19.109Z,17.58
2023-02-25T12:20:44.813Z,17.95
2023-02-25T12:24:01.900Z,17.82
2023-02-25T12:26:53.116Z,17.70
2023-02-25T12:29:49.295Z,17.85
2023-02-25T12:32:59.764Z,17.93
2023-02-25T12:36:03.911Z,17.90
2023-02-25T12:41:41.030Z,18.10
2023-02-25T12:45:09.732Z,18.33
2023-02-25T12:47:57.725Z,18.72
2023-02-25T12:50:57.408Z,19.10
2023-02-25T12:53:37.227Z,19.52
2023-02-25T12:56:31.389Z,19.83
2023-02-25T12:59:56.626Z,20.00
2023-02-25T13:02:44.469Z,20.54
2023-02-25T13:05:49.007Z,20.79
2023-02-25T13:08:48.096Z,21.16
2023-02-25T13:11:34.561Z,21.49
2023-02-25T13:14:37.269Z,21.43
2023-02-25T13:17:43.775Z,20.94
2023-02-25T13:21:03.412Z,20.52
2023-02-25T13:23:48.302Z,20.66
2023-02-25T13:26:34.748Z,20.81
2023-02-25T13:29:24.440Z,20.86
2023-02-25T13:32:16.514Z,20.99
2023-02-25T13:34:56.998Z,21.25
2023-02-25T13:37:42.952Z,21.26
2023-02-25T13:40:31.713Z,21.30
2023-02-25T13:43:14.969Z,21.26
2023-02-25T13:45:58.230Z,21.43
2023-02-25T13:49:15.845Z,21.43
2023-02-25T13:52:18.404Z,21.03
2023-02-25T13:55:28.324Z,20.42
2023-02-25T13:58:29.478Z,19.93
2023-02-25T14:01:29.109Z,19.45
2023-02-25T14:04:51.924Z,18.86
2023-02-25T14:07:55.780Z,18.21
2023-02-25T14:10:56.039Z,17.65
2023-02-25T14:13:59.770Z,17.22
2023-02-25T14:16:57.549Z,16.80
2023-02-25T14:19:48.567Z,16.41
2023-02-25T14:22:45.347Z,16.03
2023-02-25T14:25:29.070Z,15.83
2023-02-25T14:28:15.731Z,15.64
2023-02-25T14:30:59.388Z,15.51
2023-02-25T14:34:14.310Z,15.45
2023-02-25T14:37:08.586Z,15.49
2023-02-25T14:39:51.664Z,15.52
2023-02-25T14:42:49.902Z,15.54
2023-02-25T14:45:27.321Z,15.56
2023-02-25T14:48:03.369Z,15.60
2023-02-25T14:50:41.483Z,15.63
2023-02-25T14:53:49.098Z,15.54
2023-02-25T14:56:57.472Z,15.31
2023-02-25T14:59:54.169Z,15.17
2023-02-25T15:03:04.942Z,15.03
2023-02-25T15:05:50.216Z,14.94
2023-02-25T15:08:53.606Z,14.83
2023-02-25T15:11:48.916Z,14.61
2023-02-25T15:15:02.678Z,14.42
2023-02-25T15:18:18.890Z,14.27
2023-02-25T15:20:48.306Z,14.13
2023-02-25T15:23:20.826Z,14.01
2023-02-25T15:25:56.559Z,13.91
2023-02-25T15:28:48.349Z,13.79
2023-02-25T15:31:38.995Z,13.71
2023-02-25T15:34:53.003Z,13.61
2023-02-25T15:37:34.665Z,13.56
2023-02-25T15:40:42.466Z,13.50
2023-02-25T15:43:46.738Z,13.43
2023-02-25T15:46:45.186Z,13.40
2023-02-25T15:49:31.940Z,13.36
2023-02-25T15:52:04.748Z,13.33
2023-02-25T15:54:53.897Z,13.26
2023-02-25T15:57:39.664Z,13.17
2023-02-25T16:01:02.878Z,12.97
2023-02-25T16:03:44.436Z,12.90
2023-02-25T16:06:20.568Z,12.83
2023-02-25T16:08:58.578Z,12.78
2023-02-25T16:11:39.236Z,12.72
2023-02-25T16:14:18.225Z,12.66
2023-02-25T16:16:52.378Z,12.65
2023-02-25T16:19:28.558Z,12.62
2023-02-25T16:22:02.584Z,12.57
2023-02-25T16:24:32.404Z,12.50
2023-02-25T16:27:09.793Z,12.43
2023-02-25T16:29:56.269Z,12.33
2023-02-25T16:32:40.080Z,12.21
2023-02-25T16:35:17.759Z,11.97
2023-02-25T16:37:59.765Z,11.63
2023-02-25T16:40:33.912Z,11.32
2023-02-25T16:43:04.027Z,10.99
2023-02-25T16:45:45.702Z,10.64
2023-02-25T16:48:25.892Z,10.35
2023-02-25T16:50:56.834Z,10.12
2023-02-25T16:53:29.912Z,9.92
2023-02-25T16:56:02.127Z,9.75
2023-02-25T16:58:32.104Z,9.61
2023-02-25T17:01:04.778Z,9.49
2023-02-25T17:03:47.099Z,9.40
2023-02-25T17:06:19.806Z,9.32
2023-02-25T17:08:50.544Z,9.25
2023-02-25T17:11:25.907Z,9.16
2023-02-25T17:13:59.441Z,9.13
2023-02-25T17:16:34.130Z,9.09
2023-02-25T17:19:09.330Z,9.08
2023-02-25T17:21:41.705Z,9.07
2023-02-25T17:24:16.970Z,9.09
2023-02-25T17:26:50.050Z,9.14
2023-02-25T17:29:21.919Z,9.20
2023-02-25T17:31:55.616Z,9.26
2023-02-25T17:34:34.857Z,9.28
2023-02-25T17:37:10.470Z,9.25
2023-02-25T17:39:42.327Z,9.20
2023-02-25T17:42:33.740Z,9.13
2023-02-25T17:45:05.428Z,9.11
2023-02-25T17:47:38.563Z,9.12
2023-02-25T17:50:28.602Z,9.13
2023-02-25T17:52:59.926Z,9.13
2023-02-25T17:55:34.363Z,9.06
2023-02-25T17:58:07.292Z,9.01
2023-02-25T18:00:39.989Z,8.94
2023-02-25T18:03:19.268Z,8.87
2023-02-25T18:05:57.681Z,8.81
2023-02-25T18:08:29.083Z,8.76
2023-02-25T18:11:04.269Z,8.71
2023-02-25T18:13:39.247Z,8.70
2023-02-25T18:16:40.780Z,8.64
2023-02-25T18:19:32.623Z,8.57
2023-02-25T18:22:05.975Z,8.49
2023-02-25T18:24:39.340Z,8.38
2023-02-25T18:27:30.816Z,8.29
2023-02-25T18:30:16.336Z,8.23
2023-02-25T18:32:47.177Z,8.16
2023-02-25T18:35:17.791Z,8.11
2023-02-25T18:37:52.535Z,8.03
2023-02-25T18:40:32.383Z,8.00
2023-02-25T18:43:02.473Z,7.96
2023-02-25T18:45:34.133Z,7.92
2023-02-25T18:48:03.793Z,7.91
2023-02-25T18:50:36.575Z,7.87
2023-02-25T18:53:08.896Z,7.82
2023-02-25T18:55:38.757Z,7.79
2023-02-25T18:58:16.874Z,7.77
2023-02-25T19:00:50.384Z,7.75
2023-02-25T19:03:26.724Z,7.75
2023-02-25T19:05:57.950Z,7.77
2023-02-25T19:08:29.746Z,7.79
2023-02-25T19:11:01.314Z,7.83
2023-02-25T19:13:37.024Z,7.85
2023-02-25T19:16:07.851Z,7.88
2023-02-25T19:18:40.088Z,7.90
2023-02-25T19:21:16.210Z,7.90
2023-02-25T19:23:51.743Z,7.90
2023-02-25T19:26:23.204Z,7.91
2023-02-25T19:28:53.582Z,7.92
2023-02-25T19:31:26.498Z,7.94
2023-02-25T19:33:57.186Z,7.96
2023-02-25T19:36:27.452Z,8.02
2023-02-25T19:38:59.189Z,8.06
2023-02-25T19:41:29.356Z,8.11
2023-02-25T19:43:59.383Z,8.17
2023-02-25T19:46:29.315Z,8.21
2023-02-25T19:48:59.666Z,8.27
2023-02-25T19:51:30.915Z,8.32
2023-02-25T19:54:02.576Z,8.35
2023-02-25T19:56:32.880Z,8.38
2023-02-25T19:59:03.014Z,8.40
2023-02-25T20:01:32.695Z,8.43
2023-02-25T20:04:03.061Z,8.47
2023-02-25T20:06:33.713Z,8.52
2023-02-25T20:09:05.387Z,8.55
2023-02-25T20:11:36.199Z,8.57
2023-02-25T20:14:07.365Z,8.58
2023-02-25T20:16:37.287Z,8.60
2023-02-25T20:19:07.780Z,8.61
2023-02-25T20:21:39.435Z,8.62
2023-02-25T20:24:11.598Z,8.64
2023-02-25T20:26:41.898Z,8.67
2023-02-25T20:29:12.378Z,8.70
2023-02-25T20:31:43.520Z,8.71
2023-02-25T20:34:18.639Z,8.72
2023-02-25T20:36:56.234Z,8.73
2023-02-25T20:39:52.665Z,8.70
2023-02-25T20:42:26.252Z,8.68
2023-02-25T20:44:57.760Z,8.66
2023-02-25T20:47:30.853Z,8.68
2023-02-25T20:50:02.655Z,8.71
2023-02-25T20:52:37.478Z,8.74
2023-02-25T20:55:12.964Z,8.78
2023-02-25T20:57:42.357Z,8.81
2023-02-25T21:00:16.469Z,8.83
2023-02-25T21:02:48.645Z,8.85
2023-02-25T21:05:18.296Z,8.87
2023-02-25T21:07:48.319Z,8.89
2023-02-25T21:10:23.788Z,8.90
2023-02-25T21:12:53.730Z,8.86
2023-02-25T21:15:23.658Z,8.83
2023-02-25T21:17:53.898Z,8.81
2023-02-25T21:20:24.655Z,8.78
2023-02-25T21:22:53.310Z,8.74
2023-02-25T21:25:24.436Z,8.70
2023-02-25T21:27:54.410Z,8.67
2023-02-25T21:30:24.123Z,8.66
2023-02-25T21:32:53.456Z,8.67
2023-02-25T21:35:26.585Z,8.65
2023-02-25T21:37:56.147Z,8.67
2023-02-25T21:40:27.662Z,8.68
2023-02-25T21:42:57.876Z,8.74
2023-02-25T21:45:27.179Z,8.78
2023-02-25T21:47:55.790Z,8.82
2023-02-25T21:50:24.726Z,8.87
2023-02-25T21:52:53.876Z,8.87
2023-02-25T21:55:22.620Z,8.84
2023-02-25T21:57:54.644Z,8.83
2023-02-25T22:00:24.333Z,8.81
2023-02-25T22:02:52.841Z,8.78
2023-02-25T22:05:21.864Z,8.73
2023-02-25T22:07:50.854Z,8.70
2023-02-25T22:10:21.374Z,8.69
2023-02-25T22:12:52.396Z,8.66
2023-02-25T22:15:21.489Z,8.66
2023-02-25T22:17:50.043Z,8.66
2023-02-25T22:20:19.439Z,8.66
2023-02-25T22:22:48.048Z,8.64
2023-02-25T22:25:16.886Z,8.62
2023-02-25T22:27:45.438Z,8.60
2023-02-25T22:30:15.850Z,8.57
2023-02-25T22:32:44.301Z,8.55
2023-02-25T22:35:12.876Z,8.56
2023-02-25T22:37:41.896Z,8.57
2023-02-25T22:40:12.523Z,8.60
2023-02-25T22:42:41.550Z,8.65
2023-02-25T22:45:11.415Z,8.68
2023-02-25T22:47:41.302Z,8.75
2023-02-25T22:50:11.332Z,8.80
2023-02-25T22:52:39.792Z,8.84
2023-02-25T22:55:10.246Z,8.85
2023-02-25T22:57:38.820Z,8.85
2023-02-25T23:00:16.890Z,8.85
2023-02-25T23:02:46.913Z,8.86
2023-02-25T23:05:15.626Z,8.84
2023-02-25T23:07:44.068Z,8.81
2023-02-25T23:10:13.246Z,8.78
2023-02-25T23:12:42.433Z,8.77
2023-02-25T23:15:12.105Z,8.75
2023-02-25T23:17:40.589Z,8.72
2023-02-25T23:20:12.878Z,8.71
2023-02-25T23:22:41.360Z,8.70
2023-02-25T23:25:11.224Z,8.69
2023-02-25T23:27:39.702Z,8.67
2023-02-25T23:30:10.302Z,8.65
2023-02-25T23:32:40.677Z,8.63
2023-02-25T23:35:12.182Z,8.61
2023-02-25T23:37:40.731Z,8.59
2023-02-25T23:40:11.983Z,8.58
2023-02-25T23:42:41.246Z,8.58
2023-02-25T23:45:12.239Z,8.55
2023-02-25T23:47:42.951Z,8.55
2023-02-25T23:50:16.780Z,8.55
2023-02-25T23:52:46.937Z,8.55
2023-02-25T23:55:17.468Z,8.54
2023-02-25T23:57:45.929Z,8.52
